sensor_id;sensor_type;location;lat;lon;timestamp;P1;durP1;ratioP1;P2;durP2;ratioP2
14686;SDS011;7431;49.440;11.084;2023-10-09T00:01:02;7.23;;;4.40;;
14686;SDS011;7431;49.440;11.084;2023-10-09T00:03:39;5.30;;;4.10;;
14686;SDS011;7431;49.440;11.084;2023-10-09T00:06:06;5.07;;;3.83;;
14686;SDS011;7431;49.440;11.084;2023-10-09T00:08:32;5.60;;;3.90;;
14686;SDS011;7431;49.440;11.084;2023-10-09T00:11:02;5.40;;;4.10;;
14686;SDS011;7431;49.440;11.084;2023-10-09T00:13:45;5.57;;;4.23;;
14686;SDS011;7431;49.440;11.084;2023-10-09T00:16:16;8.33;;;4.83;;
14686;SDS011;7431;49.440;11.084;2023-10-09T00:18:42;8.10;;;4.13;;
14686;SDS011;7431;49.440;11.084;2023-10-09T00:21:17;6.43;;;4.67;;
14686;SDS011;7431;49.440;11.084;2023-10-09T00:23:47;7.07;;;5.20;;
14686;SDS011;7431;49.440;11.084;2023-10-09T00:26:24;7.53;;;4.43;;
14686;SDS011;7431;49.440;11.084;2023-10-09T00:28:51;5.07;;;4.37;;
14686;SDS011;7431;49.440;11.084;2023-10-09T00:31:17;7.43;;;4.43;;
14686;SDS011;7431;49.440;11.084;2023-10-09T00:33:58;6.43;;;4.80;;
14686;SDS011;7431;49.440;11.084;2023-10-09T00:36:44;8.53;;;5.07;;
14686;SDS011;7431;49.440;11.084;2023-10-09T00:39:16;7.47;;;4.53;;
14686;SDS011;7431;49.440;11.084;2023-10-09T00:42:01;6.40;;;4.57;;
14686;SDS011;7431;49.440;11.084;2023-10-09T00:44:28;8.50;;;5.13;;
14686;SDS011;7431;49.440;11.084;2023-10-09T00:47:08;8.33;;;4.47;;
14686;SDS011;7431;49.440;11.084;2023-10-09T00:50:08;6.80;;;4.60;;
14686;SDS011;7431;49.440;11.084;2023-10-09T00:52:46;5.90;;;4.23;;
14686;SDS011;7431;49.440;11.084;2023-10-09T00:55:20;8.50;;;4.30;;
14686;SDS011;7431;49.440;11.084;2023-10-09T00:58:05;6.07;;;4.53;;
14686;SDS011;7431;49.440;11.084;2023-10-09T01:00:37;8.93;;;4.83;;
14686;SDS011;7431;49.440;11.084;2023-10-09T01:03:09;7.17;;;4.47;;
14686;SDS011;7431;49.440;11.084;2023-10-09T01:05:38;5.60;;;4.20;;
14686;SDS011;7431;49.440;11.084;2023-10-09T01:08:16;7.13;;;4.60;;
14686;SDS011;7431;49.440;11.084;2023-10-09T01:10:50;5.57;;;5.03;;
14686;SDS011;7431;49.440;11.084;2023-10-09T01:13:21;10.97;;;5.03;;
14686;SDS011;7431;49.440;11.084;2023-10-09T01:15:52;7.27;;;5.17;;
14686;SDS011;7431;49.440;11.084;2023-10-09T01:18:18;7.23;;;5.03;;
14686;SDS011;7431;49.440;11.084;2023-10-09T01:20:45;7.77;;;4.77;;
14686;SDS011;7431;49.440;11.084;2023-10-09T01:23:11;7.43;;;5.03;;
14686;SDS011;7431;49.440;11.084;2023-10-09T01:25:37;10.53;;;4.80;;
14686;SDS011;7431;49.440;11.084;2023-10-09T01:28:14;9.00;;;5.17;;
14686;SDS011;7431;49.440;11.084;2023-10-09T01:30:41;6.60;;;4.87;;
14686;SDS011;7431;49.440;11.084;2023-10-09T01:33:07;7.10;;;4.57;;
14686;SDS011;7431;49.440;11.084;2023-10-09T01:36:03;5.97;;;4.67;;
14686;SDS011;7431;49.440;11.084;2023-10-09T01:38:30;5.70;;;4.57;;
14686;SDS011;7431;49.440;11.084;2023-10-09T01:41:07;8.17;;;4.77;;
14686;SDS011;7431;49.440;11.084;2023-10-09T01:43:33;7.73;;;5.37;;
14686;SDS011;7431;49.440;11.084;2023-10-09T01:46:00;8.30;;;5.20;;
14686;SDS011;7431;49.440;11.084;2023-10-09T01:48:26;7.90;;;5.40;;
14686;SDS011;7431;49.440;11.084;2023-10-09T01:50:52;8.27;;;5.20;;
14686;SDS011;7431;49.440;11.084;2023-10-09T01:53:18;9.87;;;5.10;;
14686;SDS011;7431;49.440;11.084;2023-10-09T01:55:47;6.50;;;4.73;;
14686;SDS011;7431;49.440;11.084;2023-10-09T01:58:20;7.07;;;4.70;;
14686;SDS011;7431;49.440;11.084;2023-10-09T02:00:46;6.87;;;4.57;;
14686;SDS011;7431;49.440;11.084;2023-10-09T02:03:20;6.97;;;5.17;;
14686;SDS011;7431;49.440;11.084;2023-10-09T02:05:49;6.33;;;4.93;;
14686;SDS011;7431;49.440;11.084;2023-10-09T02:08:16;7.43;;;4.73;;
14686;SDS011;7431;49.440;11.084;2023-10-09T02:10:47;11.30;;;5.20;;
14686;SDS011;7431;49.440;11.084;2023-10-09T02:13:13;6.57;;;4.73;;
14686;SDS011;7431;49.440;11.084;2023-10-09T02:15:42;5.70;;;4.43;;
14686;SDS011;7431;49.440;11.084;2023-10-09T02:20:44;6.57;;;4.50;;
14686;SDS011;7431;49.440;11.084;2023-10-09T02:23:11;6.87;;;4.57;;
14686;SDS011;7431;49.440;11.084;2023-10-09T02:25:45;7.03;;;5.03;;
14686;SDS011;7431;49.440;11.084;2023-10-09T02:28:12;7.73;;;5.07;;
14686;SDS011;7431;49.440;11.084;2023-10-09T02:30:44;6.03;;;4.77;;
14686;SDS011;7431;49.440;11.084;2023-10-09T02:33:14;7.33;;;5.10;;
14686;SDS011;7431;49.440;11.084;2023-10-09T02:35:52;8.27;;;4.77;;
14686;SDS011;7431;49.440;11.084;2023-10-09T02:38:19;6.83;;;4.77;;
14686;SDS011;7431;49.440;11.084;2023-10-09T02:40:49;9.20;;;5.53;;
14686;SDS011;7431;49.440;11.084;2023-10-09T02:43:25;8.97;;;4.77;;
14686;SDS011;7431;49.440;11.084;2023-10-09T02:45:51;7.10;;;4.80;;
14686;SDS011;7431;49.440;11.084;2023-10-09T02:48:18;7.47;;;5.00;;
14686;SDS011;7431;49.440;11.084;2023-10-09T02:50:46;6.83;;;4.37;;
14686;SDS011;7431;49.440;11.084;2023-10-09T02:53:12;7.27;;;5.00;;
14686;SDS011;7431;49.440;11.084;2023-10-09T02:55:43;5.70;;;4.63;;
14686;SDS011;7431;49.440;11.084;2023-10-09T02:58:18;6.87;;;5.17;;
14686;SDS011;7431;49.440;11.084;2023-10-09T03:00:46;8.43;;;4.67;;
14686;SDS011;7431;49.440;11.084;2023-10-09T03:03:13;7.60;;;5.03;;
14686;SDS011;7431;49.440;11.084;2023-10-09T03:05:44;7.37;;;4.77;;
14686;SDS011;7431;49.440;11.084;2023-10-09T03:08:09;5.80;;;4.63;;
14686;SDS011;7431;49.440;11.084;2023-10-09T03:10:37;7.77;;;4.90;;
14686;SDS011;7431;49.440;11.084;2023-10-09T03:13:06;8.07;;;5.27;;
14686;SDS011;7431;49.440;11.084;2023-10-09T03:15:32;7.20;;;5.33;;
14686;SDS011;7431;49.440;11.084;2023-10-09T03:18:01;7.13;;;4.90;;
14686;SDS011;7431;49.440;11.084;2023-10-09T03:20:27;7.77;;;4.37;;
14686;SDS011;7431;49.440;11.084;2023-10-09T03:22:55;8.17;;;5.30;;
14686;SDS011;7431;49.440;11.084;2023-10-09T03:25:22;5.70;;;4.43;;
14686;SDS011;7431;49.440;11.084;2023-10-09T03:27:50;8.47;;;4.70;;
14686;SDS011;7431;49.440;11.084;2023-10-09T03:30:18;6.17;;;4.43;;
14686;SDS011;7431;49.440;11.084;2023-10-09T03:32:47;7.77;;;4.77;;
14686;SDS011;7431;49.440;11.084;2023-10-09T03:35:19;5.67;;;4.37;;
14686;SDS011;7431;49.440;11.084;2023-10-09T03:37:50;7.23;;;5.03;;
14686;SDS011;7431;49.440;11.084;2023-10-09T03:40:16;6.40;;;4.23;;
14686;SDS011;7431;49.440;11.084;2023-10-09T03:42:43;8.73;;;5.07;;
14686;SDS011;7431;49.440;11.084;2023-10-09T03:45:09;9.23;;;5.00;;
14686;SDS011;7431;49.440;11.084;2023-10-09T03:47:43;8.97;;;4.87;;
14686;SDS011;7431;49.440;11.084;2023-10-09T03:50:13;7.17;;;5.13;;
14686;SDS011;7431;49.440;11.084;2023-10-09T03:52:57;6.07;;;4.87;;
14686;SDS011;7431;49.440;11.084;2023-10-09T03:55:24;9.27;;;5.00;;
14686;SDS011;7431;49.440;11.084;2023-10-09T03:57:53;6.07;;;4.60;;
14686;SDS011;7431;49.440;11.084;2023-10-09T04:00:19;9.27;;;4.73;;
14686;SDS011;7431;49.440;11.084;2023-10-09T04:02:54;8.17;;;4.93;;
14686;SDS011;7431;49.440;11.084;2023-10-09T04:05:21;8.13;;;4.73;;
14686;SDS011;7431;49.440;11.084;2023-10-09T04:07:47;6.53;;;4.57;;
14686;SDS011;7431;49.440;11.084;2023-10-09T04:10:14;7.50;;;4.57;;
14686;SDS011;7431;49.440;11.084;2023-10-09T04:13:08;7.33;;;5.00;;
14686;SDS011;7431;49.440;11.084;2023-10-09T04:15:37;6.67;;;4.97;;
14686;SDS011;7431;49.440;11.084;2023-10-09T04:18:03;8.33;;;5.40;;
14686;SDS011;7431;49.440;11.084;2023-10-09T04:20:34;7.17;;;4.97;;
14686;SDS011;7431;49.440;11.084;2023-10-09T04:23:20;8.00;;;4.60;;
14686;SDS011;7431;49.440;11.084;2023-10-09T04:25:59;6.23;;;4.70;;
14686;SDS011;7431;49.440;11.084;2023-10-09T04:28:35;7.40;;;4.60;;
14686;SDS011;7431;49.440;11.084;2023-10-09T04:31:01;8.20;;;4.97;;
14686;SDS011;7431;49.440;11.084;2023-10-09T04:33:31;5.63;;;4.60;;
14686;SDS011;7431;49.440;11.084;2023-10-09T04:36:07;6.83;;;4.70;;
14686;SDS011;7431;49.440;11.084;2023-10-09T04:38:49;7.97;;;5.43;;
14686;SDS011;7431;49.440;11.084;2023-10-09T04:41:40;6.00;;;4.83;;
14686;SDS011;7431;49.440;11.084;2023-10-09T04:44:06;5.00;;;4.27;;
14686;SDS011;7431;49.440;11.084;2023-10-09T04:46:44;8.77;;;5.37;;
14686;SDS011;7431;49.440;11.084;2023-10-09T04:49:30;10.70;;;5.27;;
14686;SDS011;7431;49.440;11.084;2023-10-09T04:52:10;9.73;;;4.87;;
14686;SDS011;7431;49.440;11.084;2023-10-09T04:54:45;7.23;;;5.00;;
14686;SDS011;7431;49.440;11.084;2023-10-09T04:57:45;7.57;;;5.37;;
14686;SDS011;7431;49.440;11.084;2023-10-09T05:00:25;6.17;;;4.60;;
14686;SDS011;7431;49.440;11.084;2023-10-09T05:02:58;10.83;;;4.93;;
14686;SDS011;7431;49.440;11.084;2023-10-09T05:05:31;8.77;;;5.50;;
14686;SDS011;7431;49.440;11.084;2023-10-09T05:08:09;12.10;;;5.47;;
14686;SDS011;7431;49.440;11.084;2023-10-09T05:13:22;7.60;;;4.53;;
14686;SDS011;7431;49.440;11.084;2023-10-09T05:16:25;9.27;;;5.23;;
14686;SDS011;7431;49.440;11.084;2023-10-09T05:18:52;6.33;;;5.00;;
14686;SDS011;7431;49.440;11.084;2023-10-09T05:21:31;7.23;;;4.93;;
14686;SDS011;7431;49.440;11.084;2023-10-09T05:23:59;7.57;;;5.10;;
14686;SDS011;7431;49.440;11.084;2023-10-09T05:26:37;8.03;;;4.73;;
14686;SDS011;7431;49.440;11.084;2023-10-09T05:29:25;7.13;;;5.30;;
14686;SDS011;7431;49.440;11.084;2023-10-09T05:31:57;11.50;;;5.50;;
14686;SDS011;7431;49.440;11.084;2023-10-09T05:34:38;8.57;;;5.00;;
14686;SDS011;7431;49.440;11.084;2023-10-09T05:37:24;9.90;;;5.53;;
14686;SDS011;7431;49.440;11.084;2023-10-09T05:39:50;8.43;;;5.50;;
14686;SDS011;7431;49.440;11.084;2023-10-09T05:42:28;6.97;;;5.27;;
14686;SDS011;7431;49.440;11.084;2023-10-09T05:45:15;8.43;;;5.40;;
14686;SDS011;7431;49.440;11.084;2023-10-09T05:47:41;9.67;;;5.03;;
14686;SDS011;7431;49.440;11.084;2023-10-09T05:50:37;6.97;;;5.37;;
14686;SDS011;7431;49.440;11.084;2023-10-09T05:53:05;9.67;;;5.63;;
14686;SDS011;7431;49.440;11.084;2023-10-09T05:55:32;9.17;;;5.93;;
14686;SDS011;7431;49.440;11.084;2023-10-09T05:58:17;8.37;;;6.03;;
14686;SDS011;7431;49.440;11.084;2023-10-09T06:01:02;8.70;;;5.17;;
14686;SDS011;7431;49.440;11.084;2023-10-09T06:03:47;13.57;;;6.10;;
14686;SDS011;7431;49.440;11.084;2023-10-09T06:06:13;12.30;;;6.70;;
14686;SDS011;7431;49.440;11.084;2023-10-09T06:09:04;9.17;;;5.87;;
14686;SDS011;7431;49.440;11.084;2023-10-09T06:11:44;10.40;;;5.97;;
14686;SDS011;7431;49.440;11.084;2023-10-09T06:14:22;10.00;;;5.77;;
14686;SDS011;7431;49.440;11.084;2023-10-09T06:16:50;11.53;;;5.43;;
14686;SDS011;7431;49.440;11.084;2023-10-09T06:19:23;8.63;;;5.03;;
14686;SDS011;7431;49.440;11.084;2023-10-09T06:21:59;8.00;;;4.47;;
14686;SDS011;7431;49.440;11.084;2023-10-09T06:24:37;8.00;;;4.60;;
14686;SDS011;7431;49.440;11.084;2023-10-09T06:27:18;9.10;;;5.10;;
14686;SDS011;7431;49.440;11.084;2023-10-09T06:29:57;6.93;;;4.35;;
14686;SDS011;7431;49.440;11.084;2023-10-09T06:32:40;10.60;;;4.67;;
14686;SDS011;7431;49.440;11.084;2023-10-09T06:35:28;8.53;;;5.50;;
14686;SDS011;7431;49.440;11.084;2023-10-09T06:37:58;7.18;;;5.63;;
14686;SDS011;7431;49.440;11.084;2023-10-09T06:40:27;7.25;;;4.97;;
14686;SDS011;7431;49.440;11.084;2023-10-09T06:43:12;7.97;;;4.87;;
14686;SDS011;7431;49.440;11.084;2023-10-09T06:45:51;6.35;;;4.80;;
14686;SDS011;7431;49.440;11.084;2023-10-09T06:48:25;10.18;;;5.97;;
14686;SDS011;7431;49.440;11.084;2023-10-09T06:51:04;12.50;;;5.32;;
14686;SDS011;7431;49.440;11.084;2023-10-09T06:53:49;9.45;;;6.13;;
14686;SDS011;7431;49.440;11.084;2023-10-09T06:56:18;8.45;;;5.20;;
14686;SDS011;7431;49.440;11.084;2023-10-09T06:58:56;6.78;;;4.70;;
14686;SDS011;7431;49.440;11.084;2023-10-09T07:01:45;11.85;;;6.00;;
14686;SDS011;7431;49.440;11.084;2023-10-09T07:04:16;8.82;;;4.95;;
14686;SDS011;7431;49.440;11.084;2023-10-09T07:06:46;8.43;;;5.45;;
14686;SDS011;7431;49.440;11.084;2023-10-09T07:09:12;13.32;;;5.75;;
14686;SDS011;7431;49.440;11.084;2023-10-09T07:11:39;12.88;;;5.32;;
14686;SDS011;7431;49.440;11.084;2023-10-09T07:16:54;10.48;;;5.15;;
14686;SDS011;7431;49.440;11.084;2023-10-09T07:19:25;10.75;;;5.20;;
14686;SDS011;7431;49.440;11.084;2023-10-09T07:22:20;10.18;;;5.13;;
14686;SDS011;7431;49.440;11.084;2023-10-09T07:27:26;8.55;;;4.53;;
14686;SDS011;7431;49.440;11.084;2023-10-09T07:30:14;11.77;;;5.10;;
14686;SDS011;7431;49.440;11.084;2023-10-09T07:32:52;9.63;;;5.35;;
14686;SDS011;7431;49.440;11.084;2023-10-09T07:35:19;8.15;;;4.63;;
14686;SDS011;7431;49.440;11.084;2023-10-09T07:38:05;7.82;;;4.68;;
14686;SDS011;7431;49.440;11.084;2023-10-09T07:40:38;5.70;;;4.30;;
14686;SDS011;7431;49.440;11.084;2023-10-09T07:43:23;11.50;;;4.63;;
14686;SDS011;7431;49.440;11.084;2023-10-09T07:45:56;7.85;;;4.57;;
14686;SDS011;7431;49.440;11.084;2023-10-09T07:48:22;7.63;;;4.38;;
14686;SDS011;7431;49.440;11.084;2023-10-09T07:50:50;7.97;;;4.85;;
14686;SDS011;7431;49.440;11.084;2023-10-09T07:53:22;6.32;;;4.40;;
14686;SDS011;7431;49.440;11.084;2023-10-09T07:56:06;11.27;;;5.03;;
14686;SDS011;7431;49.440;11.084;2023-10-09T07:58:32;12.55;;;5.45;;
14686;SDS011;7431;49.440;11.084;2023-10-09T08:01:10;12.60;;;4.80;;
14686;SDS011;7431;49.440;11.084;2023-10-09T08:04:00;15.18;;;5.25;;
14686;SDS011;7431;49.440;11.084;2023-10-09T08:06:39;10.30;;;5.32;;
14686;SDS011;7431;49.440;11.084;2023-10-09T08:09:07;8.38;;;4.75;;
14686;SDS011;7431;49.440;11.084;2023-10-09T08:11:40;13.43;;;6.82;;
14686;SDS011;7431;49.440;11.084;2023-10-09T08:14:13;12.95;;;4.65;;
14686;SDS011;7431;49.440;11.084;2023-10-09T08:17:05;13.65;;;4.25;;
14686;SDS011;7431;49.440;11.084;2023-10-09T08:19:47;9.18;;;4.32;;
14686;SDS011;7431;49.440;11.084;2023-10-09T08:22:23;7.38;;;4.15;;
14686;SDS011;7431;49.440;11.084;2023-10-09T08:24:49;9.98;;;4.53;;
14686;SDS011;7431;49.440;11.084;2023-10-09T08:27:24;5.47;;;3.70;;
14686;SDS011;7431;49.440;11.084;2023-10-09T08:29:58;5.55;;;3.53;;
14686;SDS011;7431;49.440;11.084;2023-10-09T08:32:53;7.22;;;3.70;;
14686;SDS011;7431;49.440;11.084;2023-10-09T08:35:35;7.78;;;3.83;;
14686;SDS011;7431;49.440;11.084;2023-10-09T08:38:12;8.23;;;3.70;;
14686;SDS011;7431;49.440;11.084;2023-10-09T08:40:39;7.32;;;3.20;;
14686;SDS011;7431;49.440;11.084;2023-10-09T08:45:34;6.63;;;3.50;;
14686;SDS011;7431;49.440;11.084;2023-10-09T08:48:01;8.35;;;3.15;;
14686;SDS011;7431;49.440;11.084;2023-10-09T08:50:30;6.45;;;3.10;;
14686;SDS011;7431;49.440;11.084;2023-10-09T08:52:56;7.57;;;3.40;;
14686;SDS011;7431;49.440;11.084;2023-10-09T08:55:22;9.88;;;3.30;;
14686;SDS011;7431;49.440;11.084;2023-10-09T08:57:48;10.30;;;3.30;;
14686;SDS011;7431;49.440;11.084;2023-10-09T09:00:18;7.72;;;3.88;;
14686;SDS011;7431;49.440;11.084;2023-10-09T09:02:55;10.63;;;3.60;;
14686;SDS011;7431;49.440;11.084;2023-10-09T09:05:21;9.00;;;3.10;;
14686;SDS011;7431;49.440;11.084;2023-10-09T09:07:48;6.53;;;2.95;;
14686;SDS011;7431;49.440;11.084;2023-10-09T09:10:14;5.70;;;3.15;;
14686;SDS011;7431;49.440;11.084;2023-10-09T09:12:46;5.28;;;2.95;;
14686;SDS011;7431;49.440;11.084;2023-10-09T09:15:19;7.10;;;3.40;;
14686;SDS011;7431;49.440;11.084;2023-10-09T09:17:48;7.38;;;3.33;;
14686;SDS011;7431;49.440;11.084;2023-10-09T09:20:24;8.60;;;2.88;;
14686;SDS011;7431;49.440;11.084;2023-10-09T09:23:05;8.68;;;3.58;;
14686;SDS011;7431;49.440;11.084;2023-10-09T09:28:36;12.32;;;3.38;;
14686;SDS011;7431;49.440;11.084;2023-10-09T09:31:20;4.90;;;3.13;;
14686;SDS011;7431;49.440;11.084;2023-10-09T09:33:47;8.98;;;3.13;;
14686;SDS011;7431;49.440;11.084;2023-10-09T09:36:23;5.57;;;3.08;;
14686;SDS011;7431;49.440;11.084;2023-10-09T09:38:51;9.27;;;2.95;;
14686;SDS011;7431;49.440;11.084;2023-10-09T09:41:26;5.63;;;2.88;;
14686;SDS011;7431;49.440;11.084;2023-10-09T09:43:58;6.53;;;3.40;;
14686;SDS011;7431;49.440;11.084;2023-10-09T09:46:31;6.10;;;3.20;;
14686;SDS011;7431;49.440;11.084;2023-10-09T09:49:01;7.15;;;3.50;;
14686;SDS011;7431;49.440;11.084;2023-10-09T09:51:32;5.82;;;3.28;;
14686;SDS011;7431;49.440;11.084;2023-10-09T09:53:58;6.22;;;2.97;;
14686;SDS011;7431;49.440;11.084;2023-10-09T09:56:27;6.28;;;3.28;;
14686;SDS011;7431;49.440;11.084;2023-10-09T09:58:54;7.68;;;3.17;;
14686;SDS011;7431;49.440;11.084;2023-10-09T10:01:27;8.18;;;3.45;;
14686;SDS011;7431;49.440;11.084;2023-10-09T10:04:01;8.95;;;3.63;;
14686;SDS011;7431;49.440;11.084;2023-10-09T10:06:31;5.70;;;2.90;;
14686;SDS011;7431;49.440;11.084;2023-10-09T10:08:58;9.65;;;4.38;;
14686;SDS011;7431;49.440;11.084;2023-10-09T10:11:40;6.50;;;3.28;;
14686;SDS011;7431;49.440;11.084;2023-10-09T10:14:07;8.57;;;3.45;;
14686;SDS011;7431;49.440;11.084;2023-10-09T10:17:19;7.57;;;3.60;;
14686;SDS011;7431;49.440;11.084;2023-10-09T10:19:44;7.93;;;2.75;;
14686;SDS011;7431;49.440;11.084;2023-10-09T10:22:24;5.97;;;2.95;;
14686;SDS011;7431;49.440;11.084;2023-10-09T10:24:54;8.18;;;3.55;;
14686;SDS011;7431;49.440;11.084;2023-10-09T10:27:23;6.97;;;3.08;;
14686;SDS011;7431;49.440;11.084;2023-10-09T10:35:18;9.35;;;3.50;;
14686;SDS011;7431;49.440;11.084;2023-10-09T10:38:03;6.15;;;3.30;;
14686;SDS011;7431;49.440;11.084;2023-10-09T10:40:39;6.50;;;3.10;;
14686;SDS011;7431;49.440;11.084;2023-10-09T10:43:18;7.28;;;3.13;;
14686;SDS011;7431;49.440;11.084;2023-10-09T10:46:03;3.88;;;2.75;;
14686;SDS011;7431;49.440;11.084;2023-10-09T10:48:38;6.28;;;2.88;;
14686;SDS011;7431;49.440;11.084;2023-10-09T10:51:11;4.88;;;2.67;;
14686;SDS011;7431;49.440;11.084;2023-10-09T10:53:49;7.30;;;3.33;;
14686;SDS011;7431;49.440;11.084;2023-10-09T10:56:17;6.13;;;3.28;;
14686;SDS011;7431;49.440;11.084;2023-10-09T10:58:53;7.47;;;3.20;;
14686;SDS011;7431;49.440;11.084;2023-10-09T11:01:36;8.93;;;3.50;;
14686;SDS011;7431;49.440;11.084;2023-10-09T11:04:21;11.15;;;3.28;;
14686;SDS011;7431;49.440;11.084;2023-10-09T11:07:00;7.70;;;3.20;;
14686;SDS011;7431;49.440;11.084;2023-10-09T11:18:10;8.02;;;3.25;;
14686;SDS011;7431;49.440;11.084;2023-10-09T11:20:43;7.85;;;3.22;;
14686;SDS011;7431;49.440;11.084;2023-10-09T11:23:42;6.15;;;3.10;;
14686;SDS011;7431;49.440;11.084;2023-10-09T11:26:17;8.10;;;2.85;;
14686;SDS011;7431;49.440;11.084;2023-10-09T11:28:46;8.63;;;3.30;;
14686;SDS011;7431;49.440;11.084;2023-10-09T11:31:22;8.25;;;3.40;;
14686;SDS011;7431;49.440;11.084;2023-10-09T11:33:48;7.55;;;3.00;;
14686;SDS011;7431;49.440;11.084;2023-10-09T11:36:16;7.50;;;3.38;;
14686;SDS011;7431;49.440;11.084;2023-10-09T11:38:42;7.10;;;2.92;;
14686;SDS011;7431;49.440;11.084;2023-10-09T11:41:14;8.88;;;3.08;;
14686;SDS011;7431;49.440;11.084;2023-10-09T11:43:48;7.78;;;3.25;;
14686;SDS011;7431;49.440;11.084;2023-10-09T11:46:17;5.15;;;2.65;;
14686;SDS011;7431;49.440;11.084;2023-10-09T11:49:09;7.90;;;2.78;;
14686;SDS011;7431;49.440;11.084;2023-10-09T11:51:50;5.63;;;2.97;;
14686;SDS011;7431;49.440;11.084;2023-10-09T11:54:39;5.03;;;2.63;;
14686;SDS011;7431;49.440;11.084;2023-10-09T11:57:08;8.13;;;2.63;;
14686;SDS011;7431;49.440;11.084;2023-10-09T11:59:34;5.57;;;2.80;;
14686;SDS011;7431;49.440;11.084;2023-10-09T12:02:07;6.03;;;2.83;;
14686;SDS011;7431;49.440;11.084;2023-10-09T12:04:39;9.23;;;3.50;;
14686;SDS011;7431;49.440;11.084;2023-10-09T12:07:08;9.00;;;3.28;;
14686;SDS011;7431;49.440;11.084;2023-10-09T12:09:38;9.02;;;2.92;;
14686;SDS011;7431;49.440;11.084;2023-10-09T12:12:05;5.95;;;2.67;;
14686;SDS011;7431;49.440;11.084;2023-10-09T12:14:32;5.90;;;2.85;;
14686;SDS011;7431;49.440;11.084;2023-10-09T12:17:06;5.18;;;2.85;;
14686;SDS011;7431;49.440;11.084;2023-10-09T12:19:34;5.25;;;2.75;;
14686;SDS011;7431;49.440;11.084;2023-10-09T12:22:01;5.97;;;3.15;;
14686;SDS011;7431;49.440;11.084;2023-10-09T12:24:31;4.90;;;3.00;;
14686;SDS011;7431;49.440;11.084;2023-10-09T12:26:58;9.57;;;3.60;;
14686;SDS011;7431;49.440;11.084;2023-10-09T12:29:24;10.48;;;3.10;;
14686;SDS011;7431;49.440;11.084;2023-10-09T12:31:55;5.93;;;3.15;;
14686;SDS011;7431;49.440;11.084;2023-10-09T12:34:24;5.72;;;2.75;;
14686;SDS011;7431;49.440;11.084;2023-10-09T12:36:52;6.55;;;3.30;;
14686;SDS011;7431;49.440;11.084;2023-10-09T12:39:18;8.40;;;3.35;;
14686;SDS011;7431;49.440;11.084;2023-10-09T12:41:44;6.13;;;3.10;;
14686;SDS011;7431;49.440;11.084;2023-10-09T12:44:10;5.85;;;3.05;;
14686;SDS011;7431;49.440;11.084;2023-10-09T12:46:40;9.30;;;3.33;;
14686;SDS011;7431;49.440;11.084;2023-10-09T12:49:06;6.30;;;2.78;;
14686;SDS011;7431;49.440;11.084;2023-10-09T12:51:32;7.65;;;2.70;;
14686;SDS011;7431;49.440;11.084;2023-10-09T12:53:58;10.30;;;3.60;;
14686;SDS011;7431;49.440;11.084;2023-10-09T12:56:26;8.80;;;3.30;;
14686;SDS011;7431;49.440;11.084;2023-10-09T12:58:58;5.22;;;3.08;;
14686;SDS011;7431;49.440;11.084;2023-10-09T13:01:26;10.23;;;3.28;;
14686;SDS011;7431;49.440;11.084;2023-10-09T13:03:57;10.23;;;3.20;;
14686;SDS011;7431;49.440;11.084;2023-10-09T13:06:25;8.23;;;3.10;;
14686;SDS011;7431;49.440;11.084;2023-10-09T13:08:51;9.30;;;3.42;;
14686;SDS011;7431;49.440;11.084;2023-10-09T13:11:17;10.13;;;3.42;;
14686;SDS011;7431;49.440;11.084;2023-10-09T13:13:43;5.65;;;2.28;;
14686;SDS011;7431;49.440;11.084;2023-10-09T13:16:16;4.32;;;2.55;;
14686;SDS011;7431;49.440;11.084;2023-10-09T13:18:52;6.60;;;2.85;;
14686;SDS011;7431;49.440;11.084;2023-10-09T13:21:19;7.63;;;3.08;;
14686;SDS011;7431;49.440;11.084;2023-10-09T13:23:45;9.05;;;3.13;;
14686;SDS011;7431;49.440;11.084;2023-10-09T13:26:12;6.80;;;2.78;;
14686;SDS011;7431;49.440;11.084;2023-10-09T13:28:49;7.32;;;3.08;;
14686;SDS011;7431;49.440;11.084;2023-10-09T13:31:15;7.18;;;3.08;;
14686;SDS011;7431;49.440;11.084;2023-10-09T13:33:42;7.68;;;3.60;;
14686;SDS011;7431;49.440;11.084;2023-10-09T13:36:09;7.30;;;3.38;;
14686;SDS011;7431;49.440;11.084;2023-10-09T13:38:44;8.77;;;2.92;;
14686;SDS011;7431;49.440;11.084;2023-10-09T13:41:10;5.68;;;2.90;;
14686;SDS011;7431;49.440;11.084;2023-10-09T13:43:39;6.25;;;3.10;;
14686;SDS011;7431;49.440;11.084;2023-10-09T13:46:06;6.97;;;3.30;;
14686;SDS011;7431;49.440;11.084;2023-10-09T13:48:33;5.38;;;2.80;;
14686;SDS011;7431;49.440;11.084;2023-10-09T13:51:06;8.40;;;3.58;;
14686;SDS011;7431;49.440;11.084;2023-10-09T13:53:34;6.75;;;3.60;;
14686;SDS011;7431;49.440;11.084;2023-10-09T13:58:48;9.55;;;3.38;;
14686;SDS011;7431;49.440;11.084;2023-10-09T14:01:15;9.05;;;3.25;;
14686;SDS011;7431;49.440;11.084;2023-10-09T14:03:52;5.03;;;3.15;;
14686;SDS011;7431;49.440;11.084;2023-10-09T14:06:18;6.85;;;2.95;;
14686;SDS011;7431;49.440;11.084;2023-10-09T14:08:55;6.75;;;3.60;;
14686;SDS011;7431;49.440;11.084;2023-10-09T14:11:21;7.32;;;3.55;;
14686;SDS011;7431;49.440;11.084;2023-10-09T14:13:47;7.03;;;3.30;;
14686;SDS011;7431;49.440;11.084;2023-10-09T14:16:13;6.63;;;3.17;;
14686;SDS011;7431;49.440;11.084;2023-10-09T14:18:58;6.38;;;2.90;;
14686;SDS011;7431;49.440;11.084;2023-10-09T14:21:26;5.85;;;3.03;;
14686;SDS011;7431;49.440;11.084;2023-10-09T14:23:58;5.38;;;3.40;;
14686;SDS011;7431;49.440;11.084;2023-10-09T14:26:27;8.18;;;3.70;;
14686;SDS011;7431;49.440;11.084;2023-10-09T14:28:54;8.23;;;3.95;;
14686;SDS011;7431;49.440;11.084;2023-10-09T14:31:22;8.40;;;4.13;;
14686;SDS011;7431;49.440;11.084;2023-10-09T14:33:55;5.95;;;3.85;;
14686;SDS011;7431;49.440;11.084;2023-10-09T14:36:22;6.88;;;3.63;;
14686;SDS011;7431;49.440;11.084;2023-10-09T14:38:49;15.77;;;7.55;;
14686;SDS011;7431;49.440;11.084;2023-10-09T14:41:21;8.07;;;3.45;;
14686;SDS011;7431;49.440;11.084;2023-10-09T14:43:49;8.48;;;3.30;;
14686;SDS011;7431;49.440;11.084;2023-10-09T14:46:15;6.63;;;3.38;;
14686;SDS011;7431;49.440;11.084;2023-10-09T14:48:45;6.40;;;3.92;;
14686;SDS011;7431;49.440;11.084;2023-10-09T14:51:13;6.57;;;3.30;;
14686;SDS011;7431;49.440;11.084;2023-10-09T14:53:39;6.95;;;3.97;;
14686;SDS011;7431;49.440;11.084;2023-10-09T14:56:05;7.50;;;4.03;;
14686;SDS011;7431;49.440;11.084;2023-10-09T14:58:39;8.18;;;3.67;;
14686;SDS011;7431;49.440;11.084;2023-10-09T15:01:09;5.07;;;3.17;;
14686;SDS011;7431;49.440;11.084;2023-10-09T15:03:36;5.97;;;3.25;;
14686;SDS011;7431;49.440;11.084;2023-10-09T15:06:02;5.90;;;3.30;;
14686;SDS011;7431;49.440;11.084;2023-10-09T15:08:28;9.23;;;3.75;;
14686;SDS011;7431;49.440;11.084;2023-10-09T15:10:55;6.47;;;3.58;;
14686;SDS011;7431;49.440;11.084;2023-10-09T15:13:21;6.93;;;3.90;;
14686;SDS011;7431;49.440;11.084;2023-10-09T15:15:53;6.20;;;3.33;;
14686;SDS011;7431;49.440;11.084;2023-10-09T15:18:20;8.45;;;3.10;;
14686;SDS011;7431;49.440;11.084;2023-10-09T15:20:50;5.97;;;3.10;;
14686;SDS011;7431;49.440;11.084;2023-10-09T15:23:16;8.57;;;3.08;;
14686;SDS011;7431;49.440;11.084;2023-10-09T15:25:44;7.53;;;3.15;;
14686;SDS011;7431;49.440;11.084;2023-10-09T15:28:15;6.85;;;3.55;;
14686;SDS011;7431;49.440;11.084;2023-10-09T15:30:42;8.93;;;3.20;;
14686;SDS011;7431;49.440;11.084;2023-10-09T15:33:08;5.50;;;3.53;;
14686;SDS011;7431;49.440;11.084;2023-10-09T15:35:36;11.35;;;4.97;;
14686;SDS011;7431;49.440;11.084;2023-10-09T15:38:02;8.82;;;4.03;;
14686;SDS011;7431;49.440;11.084;2023-10-09T15:40:32;8.57;;;3.28;;
14686;SDS011;7431;49.440;11.084;2023-10-09T15:43:00;7.53;;;3.55;;
14686;SDS011;7431;49.440;11.084;2023-10-09T15:45:26;6.50;;;3.08;;
14686;SDS011;7431;49.440;11.084;2023-10-09T15:47:54;6.55;;;3.38;;
14686;SDS011;7431;49.440;11.084;2023-10-09T15:50:20;6.55;;;3.00;;